Time;durP1;ratioP1;P1;durP2;ratioP2;P2;SDS_P1;SDS_P2;PMS_P1;PMS_P2;Temp;Humidity;BMP_temperature;BMP_pressure;BME280_temperature;BME280_humidity;BME280_pressure;Samples;Min_cycle;Max_cycle;Signal;HPM_P1;HPM_P2
2022/07/26 00:00:15;;;;;;;4.60;4.05;;;27.60;63.20;;;;;;5094219;28;20054;-77
2022/07/26 00:02:41;;;;;;;5.05;4.50;;;27.70;63.40;;;;;;5094457;28;20028;-75
2022/07/26 00:05:08;;;;;;;6.78;4.90;;;27.60;63.20;;;;;;5093811;28;20111;-78
2022/07/26 00:07:33;;;;;;;5.75;4.43;;;27.60;63.30;;;;;;5093184;28;20031;-76
2022/07/26 00:09:59;;;;;;;5.65;4.05;;;27.60;63.30;;;;;;5094022;28;20380;-76
2022/07/26 00:12:25;;;;;;;6.10;4.28;;;27.50;63.00;;;;;;5094210;28;20028;-76
2022/07/26 00:14:51;;;;;;;5.47;4.47;;;27.50;63.20;;;;;;5094196;28;20112;-77
2022/07/26 00:17:17;;;;;;;6.63;4.78;;;27.50;63.20;;;;;;5093600;28;20036;-76
2022/07/26 00:19:43;;;;;;;9.25;5.03;;;27.50;63.00;;;;;;5094208;28;20372;-76
2022/07/26 00:24:53;;;;;;;5.30;4.18;;;27.50;62.70;;;;;;5093807;28;20035;-76
2022/07/26 00:27:18;;;;;;;9.52;4.65;;;27.40;62.70;;;;;;5093884;28;20024;-76
2022/07/26 00:29:44;;;;;;;5.03;4.00;;;27.40;62.30;;;;;;5093950;28;20135;-77
2022/07/26 00:32:09;;;;;;;4.80;4.13;;;27.40;62.70;;;;;;5093628;28;20376;-76
2022/07/26 00:34:35;;;;;;;6.57;4.63;;;27.40;62.60;;;;;;5094008;28;20097;-76
2022/07/26 00:37:01;;;;;;;5.80;4.28;;;27.40;62.40;;;;;;5093209;28;20024;-76
2022/07/26 00:39:27;;;;;;;5.60;4.30;;;27.40;62.60;;;;;;5093703;28;20051;-76
2022/07/26 00:41:53;;;;;;;5.68;4.57;;;27.40;62.40;;;;;;5093605;28;20055;-76
2022/07/26 00:44:18;;;;;;;5.47;4.15;;;27.40;62.70;;;;;;5093282;28;20428;-76
2022/07/26 00:46:44;;;;;;;5.50;4.07;;;27.40;62.60;;;;;;5092208;28;20115;-76
2022/07/26 00:49:11;;;;;;;4.78;4.10;;;27.40;62.40;;;;;;5093237;28;20031;-77
2022/07/26 00:51:36;;;;;;;5.97;4.43;;;27.50;62.40;;;;;;5092861;28;20023;-77
2022/07/26 00:54:04;;;;;;;7.22;3.85;;;27.40;62.50;;;;;;5093178;28;20020;-77
2022/07/26 00:56:32;;;;;;;5.20;4.18;;;27.40;62.80;;;;;;5093240;28;20388;-77
2022/07/26 00:58:58;;;;;;;4.70;4.20;;;27.40;63.10;;;;;;5093563;28;20112;-77
2022/07/26 01:01:24;;;;;;;6.18;4.65;;;27.40;62.80;;;;;;5092932;28;20021;-78
2022/07/26 01:03:52;;;;;;;5.75;3.78;;;27.40;63.30;;;;;;5092327;28;20027;-78
2022/07/26 01:06:18;;;;;;;7.00;4.75;;;27.20;62.80;;;;;;5091155;28;20032;-77
2022/07/26 01:08:44;;;;;;;5.78;4.53;;;27.10;63.40;;;;;;5071000;28;20021;-77
2022/07/26 01:11:09;;;;;;;5.40;3.83;;;27.00;64.40;;;;;;5071943;28;20034;-78
2022/07/26 01:13:35;;;;;;;7.00;3.83;;;26.90;63.60;;;;;;5072421;28;20389;-76
2022/07/26 01:16:01;;;;;;;4.20;3.47;;;26.80;63.20;;;;;;5087485;28;20337;-77
2022/07/26 01:18:27;;;;;;;5.32;3.25;;;26.90;63.20;;;;;;5072128;28;20033;-77
2022/07/26 01:20:53;;;;;;;10.00;3.95;;;26.90;63.10;;;;;;5072097;28;20175;-77
2022/07/26 01:23:19;;;;;;;7.18;3.25;;;26.80;62.70;;;;;;5104780;28;20453;-77
2022/07/26 01:25:45;;;;;;;8.25;2.95;;;26.70;63.10;;;;;;5072312;28;20060;-77
2022/07/26 01:28:10;;;;;;;15.43;3.65;;;26.60;64.50;;;;;;5087366;28;20070;-77
2022/07/26 01:30:36;;;;;;;5.55;3.22;;;26.30;66.00;;;;;;5072313;28;20045;-78
2022/07/26 01:33:02;;;;;;;4.72;2.55;;;26.00;68.70;;;;;;5071622;28;20381;-77
2022/07/26 01:35:28;;;;;;;10.35;3.65;;;25.80;71.50;;;;;;5072341;28;20044;-78
2022/07/26 01:37:54;;;;;;;3.88;3.15;;;25.50;75.10;;;;;;5071986;28;20029;-78
2022/07/26 01:40:19;;;;;;;8.25;2.95;;;25.10;78.20;;;;;;5071746;28;20078;-79
2022/07/26 01:42:45;;;;;;;4.30;3.03;;;24.90;80.00;;;;;;5072413;28;20090;-80
2022/07/26 01:45:11;;;;;;;6.93;2.70;;;24.70;81.70;;;;;;5072157;28;20108;-80
2022/07/26 01:47:38;;;;;;;3.58;2.78;;;24.50;82.90;;;;;;5105240;28;20116;-80
2022/07/26 01:50:05;;;;;;;3.88;2.35;;;24.40;84.00;;;;;;5071816;28;20086;-80
2022/07/26 01:52:31;;;;;;;5.40;2.67;;;24.30;84.80;;;;;;5072310;28;20024;-81
2022/07/26 01:54:57;;;;;;;4.88;3.28;;;24.20;85.20;;;;;;5072789;28;20029;-80
2022/07/26 01:57:23;;;;;;;3.85;2.33;;;24.20;85.20;;;;;;5071648;28;20044;-81
2022/07/26 01:59:49;;;;;;;3.95;2.35;;;24.10;85.20;;;;;;5088131;28;20029;-81
2022/07/26 02:02:14;;;;;;;5.10;1.80;;;24.10;85.50;;;;;;5072469;28;20040;-80
2022/07/26 02:04:58;;;;;;;2.25;1.65;;;24.10;86.50;;;;;;5072372;28;20054;-81
2022/07/26 02:07:32;;;;;;;2.53;1.88;;;24.10;87.50;;;;;;5072820;28;20081;-79
2022/07/26 02:09:58;;;;;;;6.00;2.25;;;24.00;88.40;;;;;;5073359;28;20036;-81
2022/07/26 02:12:24;;;;;;;3.47;2.20;;;23.90;88.80;;;;;;5072648;28;20426;-81
2022/07/26 02:14:50;;;;;;;5.15;1.90;;;23.90;89.50;;;;;;5072326;28;20108;-80
2022/07/26 02:17:16;;;;;;;3.33;2.13;;;23.80;89.70;;;;;;5073967;28;20051;-80
2022/07/26 02:19:42;;;;;;;3.33;2.20;;;23.70;90.70;;;;;;5077007;28;20024;-81
2022/07/26 02:22:08;;;;;;;4.80;2.35;;;23.70;91.80;;;;;;5076694;28;20025;-79
2022/07/26 02:24:34;;;;;;;4.30;1.85;;;23.60;92.00;;;;;;5076605;28;20024;-81
2022/07/26 02:27:00;;;;;;;3.53;2.40;;;23.50;92.90;;;;;;5076975;28;20208;-81
2022/07/26 02:29:27;;;;;;;2.67;2.13;;;23.40;93.90;;;;;;5076082;28;20054;-81
2022/07/26 02:31:55;;;;;;;3.63;2.30;;;23.30;94.90;;;;;;5076162;28;20044;-82
2022/07/26 02:34:21;;;;;;;4.28;2.42;;;23.10;96.40;;;;;;5076198;28;20512;-82
2022/07/26 02:36:46;;;;;;;3.53;1.83;;;23.00;97.30;;;;;;5076298;28;20067;-82
2022/07/26 02:39:12;;;;;;;2.45;1.90;;;22.80;98.30;;;;;;5076050;28;20032;-82
2022/07/26 02:41:38;;;;;;;2.85;2.25;;;22.80;99.30;;;;;;5076559;28;20029;-83
2022/07/26 02:44:04;;;;;;;5.78;2.28;;;22.70;99.90;;;;;;5108433;28;20036;-80
2022/07/26 02:46:30;;;;;;;3.97;2.13;;;22.60;99.90;;;;;;5076223;28;20097;-82
2022/07/26 02:48:58;;;;;;;3.72;1.90;;;22.50;99.90;;;;;;5075921;28;20112;-82
2022/07/26 02:51:24;;;;;;;2.33;1.80;;;22.50;99.90;;;;;;5091045;28;20240;-82
2022/07/26 02:53:50;;;;;;;2.40;1.80;;;22.40;99.90;;;;;;5082172;28;20441;-82
2022/07/26 02:56:15;;;;;;;2.47;1.45;;;22.30;99.90;;;;;;5095880;28;20507;-82
2022/07/26 02:58:41;;;;;;;4.10;1.73;;;22.30;99.90;;;;;;5095596;28;20020;-83
2022/07/26 03:01:06;;;;;;;3.42;1.85;;;22.30;99.90;;;;;;5095354;28;20030;-81
2022/07/26 03:03:32;;;;;;;2.47;1.83;;;22.20;99.90;;;;;;5095968;28;20367;-82
2022/07/26 03:05:58;;;;;;;2.40;2.03;;;22.20;99.90;;;;;;5095683;28;20060;-83
2022/07/26 03:08:23;;;;;;;3.05;1.83;;;22.30;99.90;;;;;;5095700;28;20034;-82
2022/07/26 03:10:49;;;;;;;3.38;1.63;;;22.30;99.90;;;;;;5095656;28;20353;-83
2022/07/26 03:13:14;;;;;;;1.90;1.70;;;22.30;99.90;;;;;;5095030;28;20453;-82
2022/07/26 03:15:40;;;;;;;2.78;1.67;;;22.30;99.90;;;;;;5095726;28;20032;-83
2022/07/26 03:18:06;;;;;;;2.78;2.03;;;22.30;99.90;;;;;;5095156;28;20035;-83
2022/07/26 03:20:32;;;;;;;2.10;1.70;;;22.40;99.90;;;;;;5095285;28;20035;-83
2022/07/26 03:22:57;;;;;;;3.35;2.17;;;22.40;99.90;;;;;;5095228;28;20362;-82
2022/07/26 03:25:23;;;;;;;2.35;1.90;;;22.40;99.90;;;;;;5094555;28;20028;-83
2022/07/26 03:27:48;;;;;;;2.30;1.75;;;22.50;99.90;;;;;;5094866;28;20024;-83
2022/07/26 03:30:14;;;;;;;1.73;1.50;;;22.50;99.90;;;;;;5093792;28;20052;-82
2022/07/26 03:32:40;;;;;;;2.20;1.65;;;22.50;99.90;;;;;;5095531;28;20030;-83
2022/07/26 03:35:07;;;;;;;1.83;1.65;;;22.50;99.90;;;;;;5094679;28;20028;-81
2022/07/26 03:37:33;;;;;;;2.40;1.70;;;22.50;99.90;;;;;;5095054;28;20080;-82
2022/07/26 03:39:58;;;;;;;2.00;1.70;;;22.50;99.90;;;;;;5095232;28;20032;-83
2022/07/26 03:42:24;;;;;;;1.67;1.58;;;22.50;99.90;;;;;;5095016;28;20024;-83
2022/07/26 03:44:49;;;;;;;1.95;1.58;;;22.50;99.90;;;;;;5095027;28;20460;-83
2022/07/26 03:47:15;;;;;;;1.95;1.48;;;22.50;99.90;;;;;;5094731;28;20028;-82
2022/07/26 03:49:41;;;;;;;2.15;1.55;;;22.50;99.90;;;;;;5095027;28;20024;-82
2022/07/26 03:52:06;;;;;;;2.63;1.60;;;22.40;99.90;;;;;;5095253;28;20082;-83
2022/07/26 03:54:32;;;;;;;2.90;1.77;;;22.40;99.90;;;;;;5095048;28;20020;-83
2022/07/26 03:56:57;;;;;;;1.77;1.52;;;22.40;99.90;;;;;;5093681;28;20465;-83
2022/07/26 03:59:24;;;;;;;2.90;1.77;;;22.40;99.90;;;;;;5092307;28;20043;-83
2022/07/26 04:01:50;;;;;;;1.70;1.60;;;22.30;99.90;;;;;;5093527;28;20448;-83
2022/07/26 04:04:17;;;;;;;2.15;1.95;;;22.30;99.90;;;;;;5104140;28;20020;-82
2022/07/26 04:06:44;;;;;;;4.57;1.95;;;22.30;99.90;;;;;;5098257;28;20040;-83
2022/07/26 04:09:11;;;;;;;2.10;1.77;;;22.20;99.90;;;;;;5094350;28;20028;-82
2022/07/26 04:11:36;;;;;;;4.28;1.92;;;22.20;99.90;;;;;;5094767;28;20031;-82
2022/07/26 04:14:03;;;;;;;2.30;1.92;;;22.10;99.90;;;;;;5094914;28;20024;-83
2022/07/26 04:16:28;;;;;;;3.42;2.00;;;22.10;99.90;;;;;;5091611;28;20306;-82
2022/07/26 04:18:54;;;;;;;3.45;2.00;;;22.00;99.90;;;;;;5092695;28;20020;-82
2022/07/26 04:21:20;;;;;;;2.72;2.00;;;22.00;99.90;;;;;;5093821;28;20489;-83
2022/07/26 04:23:46;;;;;;;3.78;2.08;;;21.90;99.90;;;;;;5094477;28;20035;-82
2022/07/26 04:26:14;;;;;;;4.65;1.92;;;21.80;99.90;;;;;;5093736;28;20115;-81
2022/07/26 04:28:41;;;;;;;2.83;1.88;;;21.80;99.90;;;;;;5093784;28;20451;-81
2022/07/26 04:31:07;;;;;;;2.72;1.90;;;21.70;99.90;;;;;;5093074;28;20487;-81
2022/07/26 04:33:33;;;;;;;2.35;1.67;;;21.60;99.90;;;;;;5093611;28;20368;-80
2022/07/26 04:35:59;;;;;;;4.15;2.00;;;21.60;99.90;;;;;;5094028;28;20024;-80
2022/07/26 04:38:25;;;;;;;3.10;2.00;;;21.70;99.90;;;;;;5088501;28;20055;-81
2022/07/26 04:40:51;;;;;;;2.28;1.73;;;21.60;99.90;;;;;;5094077;28;20067;-80
2022/07/26 04:43:18;;;;;;;3.22;1.95;;;21.70;99.90;;;;;;5087549;28;20039;-77
2022/07/26 04:45:45;;;;;;;2.75;2.08;;;21.60;99.90;;;;;;5093443;28;20085;-81
2022/07/26 04:48:12;;;;;;;1.60;1.50;;;21.60;99.90;;;;;;5093637;28;20024;-78
2022/07/26 04:50:38;;;;;;;2.28;1.50;;;21.60;99.90;;;;;;5093849;28;20036;-81
2022/07/26 04:53:04;;;;;;;2.85;1.92;;;21.50;99.90;;;;;;5093674;28;20024;-82
2022/07/26 04:55:29;;;;;;;3.25;1.92;;;21.50;99.90;;;;;;5093200;28;20047;-81
2022/07/26 04:57:55;;;;;;;4.15;2.25;;;21.50;99.90;;;;;;5094011;28;20036;-82
2022/07/26 05:00:25;;;;;;;3.88;2.30;;;21.50;99.90;;;;;;5093513;28;20032;-82
2022/07/26 05:02:56;;;;;;;1.88;1.73;;;21.40;99.90;;;;;;5094455;28;20016;-82
2022/07/26 05:05:23;;;;;;;2.88;1.88;;;21.40;99.90;;;;;;5093441;28;20036;-84
2022/07/26 05:07:52;;;;;;;2.38;1.63;;;21.50;99.90;;;;;;5093406;28;20476;-79
2022/07/26 05:10:19;;;;;;;2.47;1.83;;;21.40;99.90;;;;;;5093180;28;20028;-85
2022/07/26 05:12:46;;;;;;;3.47;2.15;;;21.40;99.90;;;;;;5093830;28;20073;-84
2022/07/26 05:15:12;;;;;;;2.60;1.52;;;21.40;99.90;;;;;;5094291;28;20028;-85
2022/07/26 05:17:38;;;;;;;2.35;1.92;;;21.40;99.90;;;;;;5093850;28;20040;-86
2022/07/26 05:20:09;;;;;;;3.45;1.77;;;21.40;99.90;;;;;;5092430;28;20061;-84
2022/07/26 05:22:35;;;;;;;2.55;2.22;;;21.50;99.90;;;;;;5093352;28;20036;-85
2022/07/26 05:25:01;;;;;;;2.60;1.88;;;21.40;99.90;;;;;;5093089;28;20028;-86
2022/07/26 05:27:27;;;;;;;2.83;1.80;;;21.40;99.90;;;;;;5093034;28;20025;-86
2022/07/26 05:29:54;;;;;;;2.33;1.80;;;21.40;99.90;;;;;;5093700;28;20051;-87
2022/07/26 05:32:20;;;;;;;2.35;1.83;;;21.40;99.90;;;;;;5093334;28;20016;-87
2022/07/26 05:34:46;;;;;;;2.85;2.17;;;21.40;99.90;;;;;;5093462;28;20520;-88
2022/07/26 05:37:12;;;;;;;2.20;1.70;;;21.30;99.90;;;;;;5093665;28;20109;-86
2022/07/26 05:39:37;;;;;;;3.67;1.80;;;21.30;99.90;;;;;;5091727;28;20157;-85
2022/07/26 05:42:03;;;;;;;2.15;1.63;;;21.30;99.90;;;;;;5093356;28;20031;-85
2022/07/26 05:44:29;;;;;;;3.00;2.03;;;21.30;99.90;;;;;;5092776;28;20380;-85
2022/07/26 05:46:55;;;;;;;3.97;2.13;;;21.30;99.90;;;;;;5093008;28;20036;-84
2022/07/26 05:49:20;;;;;;;3.53;2.13;;;21.20;99.90;;;;;;5093105;28;20024;-85
2022/07/26 05:51:46;;;;;;;4.13;1.95;;;21.20;99.90;;;;;;5095408;28;20372;-86
2022/07/26 05:54:11;;;;;;;2.33;1.40;;;21.30;99.90;;;;;;5100365;28;20499;-85
2022/07/26 05:56:37;;;;;;;2.05;1.58;;;21.20;99.90;;;;;;5099574;28;20032;-87
2022/07/26 05:59:03;;;;;;;2.72;1.80;;;21.20;99.90;;;;;;5087609;28;20028;-86
2022/07/26 06:01:31;;;;;;;3.60;1.90;;;21.20;99.90;;;;;;5093572;28;20089;-83
2022/07/26 06:03:57;;;;;;;3.22;1.83;;;21.20;99.90;;;;;;5100855;28;20108;-85
2022/07/26 06:06:23;;;;;;;2.97;1.95;;;21.20;99.90;;;;;;5100981;28;20032;-89
2022/07/26 06:08:49;;;;;;;2.88;2.00;;;21.20;99.90;;;;;;5103012;28;20103;-89
2022/07/26 06:11:14;;;;;;;2.85;1.90;;;21.20;99.90;;;;;;5104112;28;20028;-89
2022/07/26 06:13:40;;;;;;;2.63;1.58;;;21.20;99.90;;;;;;5104236;28;20031;-87
2022/07/26 06:16:06;;;;;;;2.95;1.70;;;21.20;99.90;;;;;;5103605;28;20035;-87
2022/07/26 06:18:31;;;;;;;3.55;1.90;;;21.20;99.90;;;;;;5101486;28;20032;-85
2022/07/26 06:20:58;;;;;;;2.55;1.73;;;21.10;99.90;;;;;;5102312;28;20517;-84
2022/07/26 06:23:23;;;;;;;2.80;1.70;;;21.10;99.90;;;;;;5101352;28;20034;-85
2022/07/26 06:25:49;;;;;;;2.30;1.58;;;21.00;99.90;;;;;;5101730;28;20123;-86
2022/07/26 06:28:15;;;;;;;3.67;2.10;;;21.00;99.90;;;;;;5102111;28;20050;-84
2022/07/26 06:30:43;;;;;;;2.25;1.65;;;21.10;99.90;;;;;;5101773;28;20048;-85
2022/07/26 06:33:08;;;;;;;5.75;1.80;;;21.10;99.90;;;;;;5100383;28;20076;-85
2022/07/26 06:35:36;;;;;;;2.28;1.60;;;21.10;99.90;;;;;;5100555;28;20036;-84
2022/07/26 06:38:16;;;;;;;2.45;1.40;;;21.10;99.90;;;;;;5077155;28;20044;-87
2022/07/26 06:40:42;;;;;;;3.03;1.88;;;21.20;99.90;;;;;;5100462;28;20165;-85
2022/07/26 06:43:07;;;;;;;1.92;1.52;;;21.20;99.90;;;;;;5101110;28;20020;-84
2022/07/26 06:45:33;;;;;;;2.15;1.35;;;21.20;99.90;;;;;;5108548;28;20028;-85
2022/07/26 06:47:59;;;;;;;2.90;1.60;;;21.20;99.90;;;;;;5103113;28;20028;-85
2022/07/26 06:50:24;;;;;;;4.80;1.80;;;21.20;99.90;;;;;;5101478;28;20032;-85
2022/07/26 06:52:50;;;;;;;1.65;1.52;;;21.20;99.90;;;;;;5101697;28;20030;-85
2022/07/26 06:55:16;;;;;;;2.42;1.60;;;21.20;99.90;;;;;;5101833;28;20058;-86
2022/07/26 06:57:41;;;;;;;2.63;2.08;;;21.20;99.90;;;;;;5101309;28;20103;-87
2022/07/26 07:00:08;;;;;;;2.17;1.48;;;21.20;99.90;;;;;;5100625;28;20039;-89
2022/07/26 07:02:35;;;;;;;1.67;1.52;;;21.20;99.90;;;;;;5099653;28;20055;-88
2022/07/26 07:05:01;;;;;;;2.58;1.90;;;21.20;99.90;;;;;;5096335;28;20028;-88
2022/07/26 07:07:26;;;;;;;3.60;1.63;;;21.30;99.90;;;;;;5097157;28;20035;-90
2022/07/26 07:09:52;;;;;;;1.80;1.30;;;21.20;99.90;;;;;;5096849;28;20028;-90
2022/07/26 07:12:18;;;;;;;3.20;1.80;;;21.20;99.90;;;;;;5097269;28;20016;-91
2022/07/26 07:14:44;;;;;;;2.80;1.70;;;21.30;99.90;;;;;;5096742;28;20055;-92
2022/07/26 07:17:10;;;;;;;3.13;1.98;;;21.30;99.90;;;;;;5097389;28;20540;-91
2022/07/26 07:19:36;;;;;;;1.90;1.60;;;21.40;99.90;;;;;;5096665;28;20032;-91
2022/07/26 07:22:03;;;;;;;2.60;1.75;;;21.50;99.90;;;;;;5095768;28;20385;-91
2022/07/26 07:24:28;;;;;;;2.83;1.58;;;21.50;99.90;;;;;;5095487;28;20118;-91
2022/07/26 07:26:54;;;;;;;3.25;1.88;;;21.50;99.90;;;;;;5096602;28;20114;-92
2022/07/26 07:29:20;;;;;;;2.53;1.30;;;21.60;99.90;;;;;;5096349;28;20135;-90
2022/07/26 07:31:46;;;;;;;1.90;1.40;;;21.60;99.90;;;;;;5095670;28;20032;-90
2022/07/26 07:34:13;;;;;;;1.25;1.15;;;21.60;99.90;;;;;;5096582;28;20031;-91
2022/07/26 07:36:39;;;;;;;1.33;1.10;;;21.60;99.90;;;;;;5096683;28;20032;-91
2022/07/26 07:39:04;;;;;;;1.80;1.23;;;21.60;99.90;;;;;;5096739;28;20104;-91
2022/07/26 07:41:33;;;;;;;2.40;1.48;;;21.70;99.90;;;;;;5095746;28;20020;-90
2022/07/26 07:43:59;;;;;;;1.75;1.30;;;21.70;99.90;;;;;;5096748;28;20375;-92
2022/07/26 07:46:25;;;;;;;1.33;1.10;;;21.80;99.90;;;;;;5096768;28;20414;-88
2022/07/26 07:48:50;;;;;;;2.08;1.35;;;21.80;99.90;;;;;;5095346;28;20020;-91
2022/07/26 07:51:16;;;;;;;1.42;1.20;;;21.80;99.90;;;;;;5094716;28;20476;-90
2022/07/26 07:53:42;;;;;;;1.65;1.27;;;21.90;99.90;;;;;;5096204;28;20102;-90
2022/07/26 07:56:07;;;;;;;1.98;1.45;;;21.80;99.90;;;;;;5096315;28;20040;-90
2022/07/26 07:58:33;;;;;;;1.80;1.40;;;21.90;99.90;;;;;;5097587;28;20039;-90
2022/07/26 08:00:58;;;;;;;1.52;1.20;;;21.90;99.90;;;;;;5096648;28;20380;-91
2022/07/26 08:03:24;;;;;;;2.20;1.50;;;21.90;99.90;;;;;;5096389;28;20020;-90
2022/07/26 08:05:50;;;;;;;1.80;1.52;;;21.90;99.90;;;;;;5095884;28;20043;-90
2022/07/26 08:08:15;;;;;;;2.58;1.33;;;21.90;99.90;;;;;;5096020;28;20031;-89
2022/07/26 08:10:41;;;;;;;1.67;1.40;;;21.90;99.90;;;;;;5095951;28;20441;-86
2022/07/26 08:13:07;;;;;;;2.22;1.73;;;21.90;99.90;;;;;;5095719;28;20032;-89
2022/07/26 08:15:33;;;;;;;2.75;1.58;;;22.00;99.90;;;;;;5095250;28;20024;-87
2022/07/26 08:17:59;;;;;;;1.92;1.50;;;22.00;99.90;;;;;;5096113;28;20111;-88
2022/07/26 08:20:25;;;;;;;1.88;1.35;;;22.00;99.90;;;;;;5096128;28;20113;-87
2022/07/26 08:22:51;;;;;;;1.98;1.27;;;22.00;99.90;;;;;;5096128;28;20027;-85
2022/07/26 08:25:16;;;;;;;2.85;1.88;;;21.90;99.90;;;;;;5095929;28;20024;-88
2022/07/26 08:27:42;;;;;;;3.75;1.70;;;21.90;99.90;;;;;;5095713;28;20095;-85
2022/07/26 08:30:08;;;;;;;2.63;1.55;;;21.90;99.90;;;;;;5096118;28;20055;-87
2022/07/26 08:32:34;;;;;;;2.38;1.70;;;21.90;99.90;;;;;;5095211;28;20139;-86
2022/07/26 08:34:59;;;;;;;2.90;1.85;;;21.90;99.90;;;;;;5095599;28;20067;-87
2022/07/26 08:37:25;;;;;;;3.30;1.77;;;22.00;99.90;;;;;;5096085;28;20102;-86
2022/07/26 08:39:51;;;;;;;2.33;1.80;;;21.90;99.90;;;;;;5094304;28;20054;-88
2022/07/26 08:42:18;;;;;;;2.38;1.73;;;22.00;99.90;;;;;;5095032;28;20077;-88
2022/07/26 08:44:46;;;;;;;1.83;1.60;;;22.00;99.90;;;;;;5094754;28;20036;-87
2022/07/26 08:47:18;;;;;;;2.25;1.50;;;22.00;99.90;;;;;;5095289;28;20043;-87
2022/07/26 08:49:45;;;;;;;2.47;1.77;;;22.00;99.90;;;;;;5094325;28;20419;-91
2022/07/26 08:52:12;;;;;;;2.90;1.70;;;22.00;99.90;;;;;;5095183;28;20385;-91
2022/07/26 08:54:45;;;;;;;2.00;1.67;;;22.00;99.90;;;;;;5098134;28;20407;-90
2022/07/26 08:57:11;;;;;;;2.08;1.42;;;22.00;99.90;;;;;;5096469;28;20028;-86
2022/07/26 08:59:37;;;;;;;1.98;1.48;;;22.00;99.90;;;;;;5108910;28;20060;-78
2022/07/26 09:02:06;;;;;;;2.50;1.60;;;22.00;99.90;;;;;;5097850;28;20032;-86
2022/07/26 09:04:37;;;;;;;2.95;1.70;;;22.10;99.90;;;;;;5094683;28;20039;-85
2022/07/26 09:07:06;;;;;;;3.50;1.58;;;22.10;99.90;;;;;;5093701;28;20450;-88
2022/07/26 09:09:33;;;;;;;2.45;1.48;;;22.10;99.90;;;;;;5094864;28;20032;-85
2022/07/26 09:12:19;;;;;;;2.72;1.67;;;22.10;99.90;;;;;;5094698;28;20114;-86
2022/07/26 09:14:46;;;;;;;2.85;1.90;;;22.10;99.90;;;;;;5094661;28;20114;-88
2022/07/26 09:17:13;;;;;;;3.47;2.10;;;22.10;99.90;;;;;;5094985;28;20032;-89
2022/07/26 09:19:39;;;;;;;1.88;1.63;;;22.10;99.90;;;;;;5093812;28;20115;-88
2022/07/26 09:22:08;;;;;;;2.63;1.80;;;22.10;99.90;;;;;;5094903;28;20483;-87
2022/07/26 09:24:45;;;;;;;2.60;1.60;;;22.20;99.90;;;;;;5094145;28;20421;-86
2022/07/26 09:27:15;;;;;;;3.10;1.90;;;22.20;99.90;;;;;;5096919;28;20469;-90
2022/07/26 09:29:52;;;;;;;2.70;1.75;;;22.20;99.90;;;;;;5105163;28;20052;-86
2022/07/26 09:32:22;;;;;;;2.10;1.63;;;22.20;99.90;;;;;;5100613;28;20122;-86
2022/07/26 09:34:50;;;;;;;1.83;1.58;;;22.30;99.90;;;;;;5098036;28;20028;-86
2022/07/26 09:37:17;;;;;;;3.45;1.80;;;22.30;99.90;;;;;;5099614;28;20012;-86
2022/07/26 09:39:57;;;;;;;2.33;1.60;;;22.30;99.90;;;;;;5102495;28;20054;-91
2022/07/26 09:42:24;;;;;;;5.38;1.60;;;22.40;99.90;;;;;;5099749;28;20047;-88
2022/07/26 09:44:50;;;;;;;2.03;1.80;;;22.40;99.90;;;;;;5099932;28;20108;-88
2022/07/26 09:47:16;;;;;;;4.40;2.33;;;22.40;99.90;;;;;;5099668;28;20064;-87
2022/07/26 09:49:42;;;;;;;2.53;1.83;;;22.50;99.90;;;;;;5097046;28;20024;-87
2022/07/26 09:52:20;;;;;;;5.75;2.05;;;22.50;99.90;;;;;;5096322;28;20019;-87
2022/07/26 09:54:48;;;;;;;2.17;1.58;;;22.50;99.90;;;;;;5095363;28;20036;-91
2022/07/26 09:57:18;;;;;;;3.15;1.75;;;22.60;99.90;;;;;;5094332;28;20024;-90
2022/07/26 09:59:45;;;;;;;1.63;1.45;;;22.60;99.90;;;;;;5094003;28;20028;-89
2022/07/26 10:02:12;;;;;;;2.50;2.00;;;22.70;99.90;;;;;;5094225;28;20379;-89
2022/07/26 10:04:39;;;;;;;3.53;1.77;;;22.70;99.90;;;;;;5093890;28;20036;-84
2022/07/26 10:07:05;;;;;;;3.13;2.40;;;22.70;99.90;;;;;;5094109;28;20074;-84
2022/07/26 10:09:44;;;;;;;1.98;1.75;;;22.80;99.90;;;;;;5093386;28;20028;-85
2022/07/26 10:12:14;;;;;;;2.83;1.90;;;22.90;99.90;;;;;;5093721;28;20032;-85
2022/07/26 10:14:45;;;;;;;1.75;1.65;;;22.90;99.90;;;;;;5093568;28;20054;-91
2022/07/26 10:17:36;;;;;;;3.00;2.00;;;23.00;99.90;;;;;;5094941;28;20032;-89
2022/07/26 10:20:04;;;;;;;2.10;1.70;;;23.00;99.90;;;;;;5096239;28;20032;-89
2022/07/26 10:22:44;;;;;;;4.07;2.50;;;23.00;99.90;;;;;;5094937;28;20581;-87
2022/07/26 10:25:16;;;;;;;3.75;1.92;;;23.10;99.90;;;;;;5096658;28;20028;-86
2022/07/26 10:27:43;;;;;;;2.28;1.60;;;23.10;99.90;;;;;;5098320;28;20050;-91
2022/07/26 10:30:18;;;;;;;2.63;1.98;;;23.20;99.90;;;;;;5108152;28;20040;-90
2022/07/26 10:32:50;;;;;;;3.67;1.85;;;23.20;99.90;;;;;;5093695;28;20035;-84
2022/07/26 10:35:35;;;;;;;3.20;2.03;;;23.20;99.90;;;;;;5096644;28;20035;-88
2022/07/26 10:38:05;;;;;;;2.45;1.80;;;23.40;99.90;;;;;;5098326;28;20035;-88
2022/07/26 10:40:32;;;;;;;2.70;2.10;;;23.40;99.90;;;;;;5100694;28;20044;-86
2022/07/26 10:43:15;;;;;;;2.22;1.80;;;23.40;99.90;;;;;;5100325;28;20019;-86
2022/07/26 10:45:41;;;;;;;2.85;1.88;;;23.50;99.90;;;;;;5100355;28;20027;-78
2022/07/26 10:48:15;;;;;;;1.85;1.73;;;23.60;99.90;;;;;;5100491;28;20021;-88
2022/07/26 10:50:43;;;;;;;2.85;2.15;;;23.70;99.90;;;;;;5100277;28;20016;-76
2022/07/26 10:53:15;;;;;;;2.67;2.13;;;23.80;99.90;;;;;;5100284;28;20012;-86
2022/07/26 10:55:54;;;;;;;2.85;1.98;;;23.90;99.90;;;;;;5100011;28;20021;-76
2022/07/26 10:58:25;;;;;;;2.15;1.88;;;23.90;99.90;;;;;;5100403;28;20021;-85
2022/07/26 11:00:59;;;;;;;3.33;2.10;;;24.00;99.90;;;;;;5099463;28;20028;-86
2022/07/26 11:03:43;;;;;;;2.10;1.90;;;24.00;99.90;;;;;;5099467;28;20039;-87
2022/07/26 11:06:14;;;;;;;2.72;2.53;;;24.10;99.90;;;;;;5092864;28;20047;-87
2022/07/26 11:08:40;;;;;;;3.50;2.35;;;24.10;99.90;;;;;;5098982;28;20016;-77
2022/07/26 11:11:06;;;;;;;3.90;2.50;;;24.20;99.60;;;;;;5100353;28;20020;-84
2022/07/26 11:13:33;;;;;;;3.08;2.40;;;24.20;99.60;;;;;;5100423;28;20054;-87
2022/07/26 11:16:01;;;;;;;3.05;2.10;;;24.30;99.80;;;;;;5119362;28;20047;-83
2022/07/26 11:18:34;;;;;;;5.18;2.45;;;24.40;99.40;;;;;;5120274;28;20040;-85
2022/07/26 11:21:16;;;;;;;3.45;2.72;;;24.60;99.30;;;;;;5119977;28;20068;-88
2022/07/26 11:23:46;;;;;;;5.05;3.03;;;24.70;98.40;;;;;;5119881;28;20008;-79
2022/07/26 11:26:13;;;;;;;3.90;2.50;;;24.80;97.80;;;;;;5120138;28;20040;-85
2022/07/26 11:28:48;;;;;;;4.10;2.70;;;24.90;97.20;;;;;;5119541;28;20051;-78
2022/07/26 11:31:15;;;;;;;3.05;2.40;;;25.00;96.30;;;;;;5120151;28;20091;-88
2022/07/26 11:33:43;;;;;;;2.60;2.40;;;25.10;95.80;;;;;;5119990;28;20008;-77
2022/07/26 11:36:10;;;;;;;5.10;2.80;;;25.20;95.40;;;;;;5119950;28;20032;-87
2022/07/26 11:38:50;;;;;;;3.13;2.60;;;25.30;95.50;;;;;;5120272;28;20036;-86
2022/07/26 11:41:24;;;;;;;3.40;2.80;;;25.50;94.00;;;;;;5120082;28;20023;-86
2022/07/26 11:43:51;;;;;;;3.22;2.40;;;25.50;92.90;;;;;;5119854;28;20012;-78
2022/07/26 11:46:18;;;;;;;3.60;2.63;;;25.60;91.60;;;;;;5119894;28;20032;-88
2022/07/26 11:48:52;;;;;;;4.30;2.78;;;25.70;91.60;;;;;;5119633;28;20032;-77
2022/07/26 11:51:20;;;;;;;2.95;2.45;;;25.70;91.20;;;;;;5119488;28;20020;-87
2022/07/26 11:53:47;;;;;;;3.38;2.28;;;25.70;90.60;;;;;;5119178;28;20012;-74
2022/07/26 11:56:19;;;;;;;4.25;2.97;;;25.80;91.10;;;;;;5119259;28;20060;-85
2022/07/26 11:58:46;;;;;;;2.95;2.40;;;25.90;91.20;;;;;;5115163;28;20489;-89
2022/07/26 12:01:15;;;;;;;4.32;2.45;;;26.00;90.80;;;;;;5099471;28;20028;-89
2022/07/26 12:03:43;;;;;;;3.92;2.20;;;26.00;90.50;;;;;;5115160;28;20012;-88
2022/07/26 12:06:15;;;;;;;4.30;2.92;;;26.10;90.10;;;;;;5119709;28;20049;-88
2022/07/26 12:08:43;;;;;;;3.17;2.42;;;26.20;89.30;;;;;;5119665;28;20034;-85
2022/07/26 12:11:10;;;;;;;3.42;2.30;;;26.20;89.10;;;;;;5119618;28;20046;-85
2022/07/26 12:13:56;;;;;;;3.03;2.38;;;26.30;88.90;;;;;;5119666;28;20071;-86
2022/07/26 12:16:41;;;;;;;2.63;2.22;;;26.40;88.80;;;;;;5119711;28;20012;-86
2022/07/26 12:19:16;;;;;;;3.80;2.40;;;26.40;87.20;;;;;;5119193;28;20074;-87
2022/07/26 12:21:43;;;;;;;2.50;2.20;;;26.50;84.40;;;;;;5118623;28;20024;-83
2022/07/26 12:24:11;;;;;;;3.83;2.40;;;26.60;82.60;;;;;;5119264;28;20012;-87
2022/07/26 12:26:37;;;;;;;2.88;2.20;;;26.70;81.70;;;;;;5118985;28;20031;-85
2022/07/26 12:32:01;;;;;;;3.47;2.40;;;26.80;80.40;;;;;;5118328;28;20050;-78
2022/07/26 12:34:27;;;;;;;2.35;2.00;;;26.90;80.10;;;;;;5119114;28;20015;-86
2022/07/26 12:36:53;;;;;;;2.72;2.05;;;27.00;79.80;;;;;;5118420;28;20075;-83
2022/07/26 12:39:21;;;;;;;3.13;2.83;;;27.00;79.30;;;;;;5119135;28;20028;-87
2022/07/26 12:41:51;;;;;;;2.22;2.00;;;27.00;76.30;;;;;;5118571;28;20012;-79
2022/07/26 12:44:16;;;;;;;2.97;2.45;;;26.90;73.70;;;;;;5119227;28;20042;-85
2022/07/26 12:46:46;;;;;;;4.00;2.08;;;26.70;73.60;;;;;;5118681;28;20036;-87
2022/07/26 12:49:11;;;;;;;2.72;2.53;;;26.50;73.70;;;;;;5118897;28;20057;-86
2022/07/26 12:51:37;;;;;;;3.60;2.25;;;26.30;74.40;;;;;;5118707;28;20032;-87